createdAt,value
2023-01-18T00:03:14.527Z,95246.72
2023-01-18T00:07:16.625Z,95249.31
2023-01-18T00:11:19.024Z,95246.81
2023-01-18T00:15:21.201Z,95247.84
2023-01-18T00:19:23.347Z,95244.16
2023-01-18T00:23:25.424Z,95237.22
2023-01-18T00:27:27.533Z,95239.38
2023-01-18T00:31:30.675Z,95237.16
2023-01-18T00:35:32.780Z,95248.47
2023-01-18T00:39:34.869Z,95248.56
2023-01-18T00:43:40.067Z,95243.63
2023-01-18T00:47:42.385Z,95232.75
2023-01-18T00:51:44.518Z,95247.34
2023-01-18T00:55:47.513Z,95250.66
2023-01-18T00:59:49.701Z,95242.84
2023-01-18T01:04:10.569Z,95240.25
2023-01-18T01:08:17.600Z,95249.59
2023-01-18T01:12:38.243Z,95251.47
2023-01-18T01:16:58.820Z,95252.50
2023-01-18T01:21:23.282Z,95255.47
2023-01-18T01:25:43.897Z,95253.41
2023-01-18T01:29:46.045Z,95262.97
2023-01-18T01:33:51.050Z,95271.88
2023-01-18T01:37:53.158Z,95266.47
2023-01-18T01:41:55.252Z,95270.56
2023-01-18T01:45:57.455Z,95271.06
2023-01-18T01:50:06.055Z,95274.13
2023-01-18T01:54:14.079Z,95281.22
2023-01-18T01:58:24.394Z,95280.38
2023-01-18T02:02:27.607Z,95294.41
2023-01-18T02:06:36.079Z,95289.41
2023-01-18T02:10:38.562Z,95288.28
2023-01-18T02:14:41.225Z,95296.59
2023-01-18T02:18:59.428Z,95293.09
2023-01-18T02:23:16.688Z,95293.72
2023-01-18T02:27:18.633Z,95297.88
2023-01-18T02:31:27.801Z,95298.94
2023-01-18T02:35:44.925Z,95318.75
2023-01-18T02:40:11.529Z,95323.06
2023-01-18T02:44:36.714Z,95320.41
2023-01-18T02:48:42.662Z,95329.84
2023-01-18T02:52:53.610Z,95335.63
2023-01-18T02:56:59.158Z,95339.75
2023-01-18T03:01:17.901Z,95352.13
2023-01-18T03:05:23.197Z,95346.88
2023-01-18T03:09:27.371Z,95350.44
2023-01-18T03:13:41.734Z,95361.56
2023-01-18T03:17:51.295Z,95356.47
2023-01-18T03:21:53.527Z,95369.09
2023-01-18T03:25:57.555Z,95370.69
2023-01-18T03:30:18.262Z,95365.47
2023-01-18T03:34:35.719Z,95367.81
2023-01-18T03:38:39.754Z,95377.75
2023-01-18T03:42:56.612Z,95381.03
2023-01-18T03:46:58.899Z,95386.19
2023-01-18T03:51:32.724Z,95385.88
2023-01-18T03:55:44.517Z,95390.81
2023-01-18T03:59:47.500Z,95399.16
2023-01-18T04:03:49.717Z,95400.72
2023-01-18T04:07:52.039Z,95408.34
2023-01-18T04:11:54.137Z,95418.09
2023-01-18T04:15:56.306Z,95425.88
2023-01-18T04:19:58.373Z,95426.97
2023-01-18T04:24:00.701Z,95430.34
2023-01-18T04:28:02.760Z,95437.88
2023-01-18T04:32:05.592Z,95431.38
2023-01-18T04:36:08.656Z,95435.09
2023-01-18T04:40:11.582Z,95442.97
2023-01-18T04:44:14.125Z,95448.34
2023-01-18T04:48:16.187Z,95453.41
2023-01-18T04:52:19.192Z,95451.81
2023-01-18T04:56:21.448Z,95455.19
2023-01-18T05:00:24.197Z,95458.78
2023-01-18T05:04:26.371Z,95470.88
2023-01-18T05:08:28.518Z,95468.44
2023-01-18T05:12:30.850Z,95471.44
2023-01-18T05:16:33.090Z,95482.84
2023-01-18T05:20:35.208Z,95490.66
2023-01-18T05:24:37.250Z,95492.22
2023-01-18T05:28:39.766Z,95504.19
2023-01-18T05:32:41.824Z,95505.09
2023-01-18T05:36:43.899Z,95520.44
2023-01-18T05:40:48.801Z,95515.31
2023-01-18T05:44:50.856Z,95512.94
2023-01-18T05:48:57.132Z,95519.94
2023-01-18T05:53:00.342Z,95537.25
2023-01-18T05:57:02.681Z,95537.25
2023-01-18T06:01:05.137Z,95541.56
2023-01-18T06:05:07.579Z,95545.59
2023-01-18T06:09:09.704Z,95552.44
2023-01-18T06:13:11.726Z,95562.66
2023-01-18T06:17:13.933Z,95566.09
2023-01-18T06:21:17.902Z,95576.13
2023-01-18T06:25:20.246Z,95577.75
2023-01-18T06:29:22.311Z,95581.25
2023-01-18T06:33:24.816Z,95584.63
2023-01-18T06:37:26.963Z,95593.16
2023-01-18T06:41:29.308Z,95594.69
2023-01-18T06:45:31.495Z,95599.22
2023-01-18T06:49:33.607Z,95602.09
2023-01-18T06:53:37.868Z,95618.56
2023-01-18T06:57:40.622Z,95620.47
2023-01-18T07:01:42.730Z,95629.94
2023-01-18T07:05:46.470Z,95637.66
2023-01-18T07:09:48.530Z,95642.03
2023-01-18T07:13:50.997Z,95654.25
2023-01-18T07:17:53.063Z,95657.88
2023-01-18T07:21:55.121Z,95660.72
2023-01-18T07:26:05.552Z,95678.19
2023-01-18T07:30:08.255Z,95678.16
2023-01-18T07:34:11.108Z,95690.00
2023-01-18T07:38:13.174Z,95693.94
2023-01-18T07:42:15.302Z,95702.78
2023-01-18T07:46:20.710Z,95706.13
2023-01-18T07:50:23.098Z,95722.63
2023-01-18T07:54:26.155Z,95725.47
2023-01-18T07:58:29.079Z,95725.50
2023-01-18T08:02:31.278Z,95737.53
2023-01-18T08:06:33.739Z,95743.41
2023-01-18T08:10:36.542Z,95741.66
2023-01-18T08:14:38.574Z,95754.38
2023-01-18T08:18:40.673Z,95753.09
2023-01-18T08:22:42.699Z,95755.56
2023-01-18T08:26:44.838Z,95763.06
2023-01-18T08:30:48.199Z,95773.41
2023-01-18T08:34:50.603Z,95780.19
2023-01-18T08:38:57.506Z,95792.97
2023-01-18T08:43:01.609Z,95795.41
2023-01-18T08:47:03.878Z,95807.44
2023-01-18T08:51:06.040Z,95812.50
2023-01-18T08:55:08.813Z,95810.69
2023-01-18T08:59:10.916Z,95817.84
2023-01-18T09:03:13.400Z,95827.63
2023-01-18T09:07:16.515Z,95824.69
2023-01-18T09:11:18.869Z,95840.75
2023-01-18T09:15:21.454Z,95844.06
2023-01-18T09:19:23.575Z,95844.91
2023-01-18T09:23:26.021Z,95851.66
2023-01-18T09:27:28.091Z,95863.84
2023-01-18T09:31:30.737Z,95872.34
2023-01-18T09:35:33.703Z,95879.09
2023-01-18T09:39:50.813Z,95876.44
2023-01-18T09:43:58.260Z,95892.44
2023-01-18T09:48:05.004Z,95888.78
2023-01-18T09:52:43.293Z,95898.16
2023-01-18T09:57:03.254Z,95901.84
2023-01-18T10:01:12.156Z,95906.53
2023-01-18T10:05:21.482Z,95918.97
2023-01-18T10:09:48.539Z,95926.53
2023-01-18T10:14:29.067Z,95927.84
2023-01-18T10:18:31.230Z,95930.00
2023-01-18T10:22:44.024Z,95927.91
2023-01-18T10:26:48.434Z,95938.97
2023-01-18T10:31:15.433Z,95935.22
2023-01-18T10:35:32.073Z,95943.81
2023-01-18T10:39:50.837Z,95949.03
2023-01-18T10:43:53.403Z,95949.59
2023-01-18T10:47:57.998Z,95943.09
2023-01-18T10:52:21.458Z,95945.63
2023-01-18T10:56:25.874Z,95958.34
2023-01-18T11:00:35.530Z,95958.47
2023-01-18T11:04:40.388Z,95959.38
2023-01-18T11:08:43.855Z,95961.84
2023-01-18T11:12:48.067Z,95958.84
2023-01-18T11:17:11.007Z,95972.03
2023-01-18T11:21:15.261Z,95973.13
2023-01-18T11:25:17.799Z,95966.03
2023-01-18T11:29:23.010Z,95970.09
2023-01-18T11:33:27.604Z,95971.91
2023-01-18T11:37:37.438Z,95970.69
2023-01-18T11:41:39.567Z,95968.66
2023-01-18T11:45:50.787Z,95975.56
2023-01-18T11:50:23.838Z,95977.50
2023-01-18T11:54:34.586Z,95976.88
2023-01-18T11:58:36.807Z,95982.22
2023-01-18T12:03:00.389Z,95981.28
2023-01-18T12:07:33.293Z,95980.50
2023-01-18T12:12:29.464Z,95980.88
2023-01-18T12:16:50.218Z,95989.53
2023-01-18T12:21:10.587Z,95992.56
2023-01-18T12:25:26.114Z,96004.16
2023-01-18T12:30:07.335Z,96014.75
2023-01-18T12:34:15.025Z,96015.41
2023-01-18T12:38:31.416Z,96022.25
2023-01-18T12:42:46.620Z,96025.41
2023-01-18T12:47:17.327Z,96031.03
2023-01-18T12:51:24.174Z,96028.38
2023-01-18T12:55:31.565Z,96040.63
2023-01-18T12:59:53.467Z,96038.66
2023-01-18T13:04:01.862Z,96052.56
2023-01-18T13:08:14.567Z,96052.41
2023-01-18T13:12:17.398Z,96061.28
2023-01-18T13:16:28.172Z,96058.69
2023-01-18T13:20:54.092Z,96057.38
2023-01-18T13:25:26.291Z,96068.94
2023-01-18T13:29:30.088Z,96065.13
2023-01-18T13:33:40.922Z,96074.09
2023-01-18T13:37:49.188Z,96072.66
2023-01-18T13:42:03.806Z,96088.41
2023-01-18T13:46:05.849Z,96089.34
2023-01-18T13:50:36.862Z,96092.69
2023-01-18T13:54:38.939Z,96098.50
2023-01-18T13:58:52.955Z,96108.84
2023-01-18T14:03:04.628Z,96106.75
2023-01-18T14:07:08.008Z,96112.31
2023-01-18T14:11:24.261Z,96123.75
2023-01-18T14:15:44.124Z,96133.56
2023-01-18T14:19:49.214Z,96146.63
2023-01-18T14:24:06.434Z,96156.06
2023-01-18T14:28:17.087Z,96165.59
2023-01-18T14:32:26.136Z,96164.78
2023-01-18T14:36:28.870Z,96178.81
2023-01-18T14:40:31.469Z,96170.44
2023-01-18T14:44:57.382Z,96179.25
2023-01-18T14:49:01.710Z,96184.72
2023-01-18T14:53:04.724Z,96193.47
2023-01-18T14:57:09.920Z,96186.06
2023-01-18T15:01:33.787Z,96205.00
2023-01-18T15:05:36.061Z,96203.31
2023-01-18T15:09:40.723Z,96205.91
2023-01-18T15:13:50.261Z,96208.59
2023-01-18T15:17:54.545Z,96210.47
2023-01-18T15:22:00.438Z,96229.47
2023-01-18T15:26:02.850Z,96220.38
2023-01-18T15:30:12.871Z,96235.94
2023-01-18T15:34:16.821Z,96253.16
2023-01-18T15:38:18.975Z,96255.13
2023-01-18T15:42:21.196Z,96263.06
2023-01-18T15:46:25.266Z,96261.50
2023-01-18T15:50:36.191Z,96269.44
2023-01-18T15:54:38.362Z,96275.66
2023-01-18T15:58:55.603Z,96283.63
2023-01-18T16:02:58.176Z,96291.66
2023-01-18T16:07:41.905Z,96300.50
2023-01-18T16:11:51.636Z,96304.13
2023-01-18T16:16:16.970Z,96314.56
2023-01-18T16:20:19.525Z,96315.59
2023-01-18T16:24:53.915Z,96317.53
2023-01-18T16:29:06.551Z,96333.75
2023-01-18T16:33:19.175Z,96343.59
2023-01-18T16:37:21.785Z,96345.59
2023-01-18T16:41:23.880Z,96351.00
2023-01-18T16:45:26.233Z,96358.84
2023-01-18T16:49:28.454Z,96363.44
2023-01-18T16:53:31.585Z,96363.69
2023-01-18T16:57:33.752Z,96379.25
2023-01-18T17:01:36.198Z,96382.03
2023-01-18T17:05:38.433Z,96385.63
2023-01-18T17:09:48.326Z,96391.84
2023-01-18T17:13:50.895Z,96399.69
2023-01-18T17:17:52.979Z,96400.59
2023-01-18T17:21:55.154Z,96411.03
2023-01-18T17:25:59.469Z,96412.19
2023-01-18T17:30:02.119Z,96419.16
2023-01-18T17:34:04.912Z,96426.91
2023-01-18T17:38:11.935Z,96421.03
2023-01-18T17:42:29.413Z,96423.88
2023-01-18T17:46:33.651Z,96446.66
2023-01-18T17:50:35.918Z,96447.56
2023-01-18T17:54:38.019Z,96447.69
2023-01-18T17:58:40.913Z,96441.06
2023-01-18T18:02:43.575Z,96461.63
2023-01-18T18:06:53.712Z,96462.47
2023-01-18T18:10:56.293Z,96467.59
2023-01-18T18:14:58.444Z,96478.97
2023-01-18T18:19:00.788Z,96482.94
2023-01-18T18:23:03.347Z,96483.97
2023-01-18T18:27:06.107Z,96487.56
2023-01-18T18:31:16.533Z,96497.06
2023-01-18T18:35:25.437Z,96506.44
2023-01-18T18:39:28.327Z,96498.75
2023-01-18T18:43:30.538Z,96508.31
2023-01-18T18:47:32.923Z,96506.66
2023-01-18T18:51:38.575Z,96513.53
2023-01-18T18:55:40.930Z,96516.97
2023-01-18T18:59:43.013Z,96507.69
2023-01-18T19:03:45.263Z,96526.63
2023-01-18T19:07:51.173Z,96526.75
2023-01-18T19:11:55.601Z,96528.44
2023-01-18T19:16:01.044Z,96529.28
2023-01-18T19:20:04.332Z,96532.84
2023-01-18T19:24:07.060Z,96533.00
2023-01-18T19:28:09.812Z,96539.06
2023-01-18T19:32:12.125Z,96538.28
2023-01-18T19:36:16.049Z,96535.94
2023-01-18T19:40:18.485Z,96540.13
2023-01-18T19:44:20.753Z,96548.78
2023-01-18T19:48:22.831Z,96547.34
2023-01-18T19:52:24.944Z,96549.97
2023-01-18T19:56:28.997Z,96560.22
2023-01-18T20:00:31.074Z,96562.66
2023-01-18T20:04:33.901Z,96560.03
2023-01-18T20:08:36.575Z,96565.94
2023-01-18T20:12:39.262Z,96575.34
2023-01-18T20:16:42.116Z,96571.16
2023-01-18T20:20:45.278Z,96577.06
2023-01-18T20:24:47.503Z,96583.03
2023-01-18T20:28:52.549Z,96587.28
2023-01-18T20:32:54.584Z,96585.75
2023-01-18T20:36:56.751Z,96591.81
2023-01-18T20:40:59.183Z,96601.25
2023-01-18T20:45:01.495Z,96604.63
2023-01-18T20:49:04.637Z,96604.63
2023-01-18T20:53:07.383Z,96607.34
2023-01-18T20:57:09.568Z,96602.06
2023-01-18T21:01:18.273Z,96612.34
2023-01-18T21:05:20.421Z,96614.22
2023-01-18T21:09:23.576Z,96620.22
2023-01-18T21:13:25.801Z,96628.78
2023-01-18T21:17:28.015Z,96638.16
2023-01-18T21:21:31.741Z,96631.41
2023-01-18T21:25:33.979Z,96639.97
2023-01-18T21:29:36.912Z,96641.63
2023-01-18T21:33:39.036Z,96643.34
2023-01-18T21:37:41.810Z,96641.53
2023-01-18T21:42:04.072Z,96646.66
2023-01-18T21:46:09.237Z,96654.34
2023-01-18T21:50:30.037Z,96650.00
2023-01-18T21:54:32.070Z,96663.56
2023-01-18T21:58:52.805Z,96659.25
2023-01-18T22:02:54.870Z,96667.84
2023-01-18T22:07:00.351Z,96664.47
2023-01-18T22:11:02.362Z,96666.13
2023-01-18T22:15:05.251Z,96667.91
2023-01-18T22:19:07.467Z,96676.50
2023-01-18T22:23:09.788Z,96672.97
2023-01-18T22:27:11.792Z,96686.72
2023-01-18T22:31:14.771Z,96696.13
2023-01-18T22:35:16.828Z,96698.75
2023-01-18T22:39:18.875Z,96703.88
2023-01-18T22:43:20.944Z,96705.63
2023-01-18T22:47:23.001Z,96708.19
2023-01-18T22:51:25.350Z,96700.50
2023-01-18T22:55:27.383Z,96716.59
2023-01-18T22:59:29.380Z,96715.53
2023-01-18T23:03:31.431Z,96717.13
2023-01-18T23:07:33.532Z,96714.50
2023-01-18T23:11:35.700Z,96715.31
2023-01-18T23:16:02.981Z,96720.38
2023-01-18T23:20:06.804Z,96723.78
2023-01-18T23:24:08.811Z,96725.44
2023-01-18T23:28:10.880Z,96716.88
2023-01-18T23:32:12.878Z,96721.13
2023-01-18T23:36:14.907Z,96716.91
2023-01-18T23:40:35.766Z,96723.69
2023-01-18T23:44:56.196Z,96723.66
2023-01-18T23:49:16.680Z,96724.47
2023-01-18T23:53:37.310Z,96729.41
2023-01-18T23:57:39.458Z,96732.63
